sensor_id;sensor_type;location;lat;lon;timestamp;temperature;humidity
24860;DHT22;12936;52.006;4.350;2024-02-28T00:00:18;6.80;99.90
24860;DHT22;12936;52.006;4.350;2024-02-28T00:03:07;6.90;99.90
24860;DHT22;12936;52.006;4.350;2024-02-28T00:05:39;6.90;99.90
24860;DHT22;12936;52.006;4.350;2024-02-28T00:08:12;6.80;99.90
24860;DHT22;12936;52.006;4.350;2024-02-28T00:10:43;6.90;99.90
24860;DHT22;12936;52.006;4.350;2024-02-28T00:16:30;6.90;99.90
24860;DHT22;12936;52.006;4.350;2024-02-28T00:19:24;6.90;99.90
24860;DHT22;12936;52.006;4.350;2024-02-28T00:22:20;6.90;99.90
24860;DHT22;12936;52.006;4.350;2024-02-28T00:25:02;6.80;99.90
24860;DHT22;12936;52.006;4.350;2024-02-28T00:27:49;6.90;99.90
24860;DHT22;12936;52.006;4.350;2024-02-28T00:30:22;6.80;99.90
24860;DHT22;12936;52.006;4.350;2024-02-28T00:33:19;6.90;99.90
24860;DHT22;12936;52.006;4.350;2024-02-28T00:47:19;6.80;99.90
24860;DHT22;12936;52.006;4.350;2024-02-28T00:50:29;6.70;99.90
24860;DHT22;12936;52.006;4.350;2024-02-28T00:53:17;6.70;99.90
24860;DHT22;12936;52.006;4.350;2024-02-28T00:59:33;6.70;99.90
24860;DHT22;12936;52.006;4.350;2024-02-28T01:15:07;6.60;99.90
24860;DHT22;12936;52.006;4.350;2024-02-28T01:17:37;6.60;99.90
24860;DHT22;12936;52.006;4.350;2024-02-28T01:20:14;6.50;99.90
24860;DHT22;12936;52.006;4.350;2024-02-28T01:22:47;6.60;99.90
24860;DHT22;12936;52.006;4.350;2024-02-28T01:25:33;6.60;99.90
24860;DHT22;12936;52.006;4.350;2024-02-28T01:28:14;6.60;99.90
24860;DHT22;12936;52.006;4.350;2024-02-28T01:30:54;6.60;99.90
24860;DHT22;12936;52.006;4.350;2024-02-28T01:33:26;6.60;99.90
24860;DHT22;12936;52.006;4.350;2024-02-28T01:35:55;6.60;99.90
24860;DHT22;12936;52.006;4.350;2024-02-28T01:38:32;6.60;99.90
24860;DHT22;12936;52.006;4.350;2024-02-28T01:41:30;6.60;99.90
24860;DHT22;12936;52.006;4.350;2024-02-28T01:44:11;6.60;99.90
24860;DHT22;12936;52.006;4.350;2024-02-28T01:47:06;6.60;99.90
24860;DHT22;12936;52.006;4.350;2024-02-28T01:49:51;6.70;99.90
24860;DHT22;12936;52.006;4.350;2024-02-28T01:52:49;6.70;99.90
24860;DHT22;12936;52.006;4.350;2024-02-28T01:55:38;6.70;99.90
24860;DHT22;12936;52.006;4.350;2024-02-28T01:58:07;6.70;99.90
24860;DHT22;12936;52.006;4.350;2024-02-28T02:01:05;6.70;99.90
24860;DHT22;12936;52.006;4.350;2024-02-28T02:03:50;6.70;99.90
24860;DHT22;12936;52.006;4.350;2024-02-28T02:06:20;6.70;99.90
24860;DHT22;12936;52.006;4.350;2024-02-28T02:09:22;6.70;99.90
24860;DHT22;12936;52.006;4.350;2024-02-28T02:12:00;6.80;99.90
24860;DHT22;12936;52.006;4.350;2024-02-28T02:17:34;6.70;99.90
24860;DHT22;12936;52.006;4.350;2024-02-28T02:20:21;6.80;99.90
24860;DHT22;12936;52.006;4.350;2024-02-28T02:23:12;6.80;99.90
24860;DHT22;12936;52.006;4.350;2024-02-28T02:26:03;6.80;99.90
24860;DHT22;12936;52.006;4.350;2024-02-28T02:28:46;6.90;99.90
24860;DHT22;12936;52.006;4.350;2024-02-28T02:31:17;6.90;99.90
24860;DHT22;12936;52.006;4.350;2024-02-28T02:33:47;6.90;99.90
24860;DHT22;12936;52.006;4.350;2024-02-28T02:36:28;6.90;99.90
24860;DHT22;12936;52.006;4.350;2024-02-28T02:39:02;6.90;99.90
24860;DHT22;12936;52.006;4.350;2024-02-28T02:41:43;6.90;99.90
24860;DHT22;12936;52.006;4.350;2024-02-28T02:44:33;6.90;99.90
24860;DHT22;12936;52.006;4.350;2024-02-28T02:47:14;7.00;99.90
24860;DHT22;12936;52.006;4.350;2024-02-28T02:49:54;6.90;99.90
24860;DHT22;12936;52.006;4.350;2024-02-28T02:52:29;7.00;99.90
24860;DHT22;12936;52.006;4.350;2024-02-28T02:55:07;6.90;99.90
24860;DHT22;12936;52.006;4.350;2024-02-28T02:57:42;7.00;99.90
24860;DHT22;12936;52.006;4.350;2024-02-28T03:00:14;7.00;99.90
24860;DHT22;12936;52.006;4.350;2024-02-28T03:02:47;7.00;99.90
24860;DHT22;12936;52.006;4.350;2024-02-28T03:05:22;7.00;99.90
24860;DHT22;12936;52.006;4.350;2024-02-28T03:07:52;7.00;99.90
24860;DHT22;12936;52.006;4.350;2024-02-28T03:10:28;7.00;99.90
24860;DHT22;12936;52.006;4.350;2024-02-28T03:13:15;7.10;99.90
24860;DHT22;12936;52.006;4.350;2024-02-28T03:15:58;7.10;99.90
24860;DHT22;12936;52.006;4.350;2024-02-28T03:18:51;7.10;99.90
24860;DHT22;12936;52.006;4.350;2024-02-28T03:25:00;7.10;99.90
24860;DHT22;12936;52.006;4.350;2024-02-28T03:30:33;7.10;99.90
24860;DHT22;12936;52.006;4.350;2024-02-28T03:33:09;7.20;99.90
24860;DHT22;12936;52.006;4.350;2024-02-28T03:35:47;7.20;99.90
24860;DHT22;12936;52.006;4.350;2024-02-28T03:41:50;7.20;99.90
24860;DHT22;12936;52.006;4.350;2024-02-28T03:44:28;7.20;99.90
24860;DHT22;12936;52.006;4.350;2024-02-28T03:47:29;7.30;99.90
24860;DHT22;12936;52.006;4.350;2024-02-28T03:50:30;7.20;99.90
24860;DHT22;12936;52.006;4.350;2024-02-28T03:53:54;7.30;99.90
24860;DHT22;12936;52.006;4.350;2024-02-28T03:57:07;7.30;99.90
24860;DHT22;12936;52.006;4.350;2024-02-28T03:59:47;7.30;99.90
24860;DHT22;12936;52.006;4.350;2024-02-28T04:02:22;7.30;99.90
24860;DHT22;12936;52.006;4.350;2024-02-28T04:05:08;7.30;99.90
24860;DHT22;12936;52.006;4.350;2024-02-28T04:07:50;7.30;99.90
24860;DHT22;12936;52.006;4.350;2024-02-28T04:10:28;7.30;99.90
24860;DHT22;12936;52.006;4.350;2024-02-28T04:13:00;7.30;99.90
24860;DHT22;12936;52.006;4.350;2024-02-28T04:15:35;7.30;99.90
24860;DHT22;12936;52.006;4.350;2024-02-28T04:18:09;7.30;99.90
24860;DHT22;12936;52.006;4.350;2024-02-28T04:20:45;7.30;99.90
24860;DHT22;12936;52.006;4.350;2024-02-28T04:23:22;7.30;99.90
24860;DHT22;12936;52.006;4.350;2024-02-28T04:26:05;7.30;99.90
24860;DHT22;12936;52.006;4.350;2024-02-28T04:28:54;7.40;99.90
24860;DHT22;12936;52.006;4.350;2024-02-28T04:31:33;7.40;99.90
24860;DHT22;12936;52.006;4.350;2024-02-28T04:34:06;7.40;99.90
24860;DHT22;12936;52.006;4.350;2024-02-28T04:36:59;7.30;99.90
24860;DHT22;12936;52.006;4.350;2024-02-28T04:39:36;7.30;99.90
24860;DHT22;12936;52.006;4.350;2024-02-28T04:42:24;7.40;99.90
24860;DHT22;12936;52.006;4.350;2024-02-28T04:45:13;7.40;99.90
24860;DHT22;12936;52.006;4.350;2024-02-28T04:48:13;7.40;99.90
24860;DHT22;12936;52.006;4.350;2024-02-28T04:58:14;7.40;99.90
24860;DHT22;12936;52.006;4.350;2024-02-28T05:00:56;7.40;99.90
24860;DHT22;12936;52.006;4.350;2024-02-28T05:03:49;7.40;99.90
24860;DHT22;12936;52.006;4.350;2024-02-28T05:06:30;7.50;99.90
24860;DHT22;12936;52.006;4.350;2024-02-28T05:09:09;7.40;99.90
24860;DHT22;12936;52.006;4.350;2024-02-28T05:11:39;7.50;99.90
24860;DHT22;12936;52.006;4.350;2024-02-28T05:14:31;7.40;99.90
24860;DHT22;12936;52.006;4.350;2024-02-28T05:17:25;7.40;99.90
24860;DHT22;12936;52.006;4.350;2024-02-28T05:20:05;7.50;99.90
24860;DHT22;12936;52.006;4.350;2024-02-28T05:23:35;7.40;99.90
24860;DHT22;12936;52.006;4.350;2024-02-28T05:26:28;7.50;99.90
24860;DHT22;12936;52.006;4.350;2024-02-28T05:29:22;7.50;99.90
24860;DHT22;12936;52.006;4.350;2024-02-28T05:32:06;7.40;99.90
24860;DHT22;12936;52.006;4.350;2024-02-28T05:34:36;7.50;99.90
24860;DHT22;12936;52.006;4.350;2024-02-28T05:37:07;7.50;99.90
24860;DHT22;12936;52.006;4.350;2024-02-28T05:39:36;7.50;99.90
24860;DHT22;12936;52.006;4.350;2024-02-28T05:42:28;7.50;99.90
24860;DHT22;12936;52.006;4.350;2024-02-28T05:45:01;7.50;99.90
24860;DHT22;12936;52.006;4.350;2024-02-28T05:47:42;7.50;99.90
24860;DHT22;12936;52.006;4.350;2024-02-28T05:50:51;7.50;99.90
24860;DHT22;12936;52.006;4.350;2024-02-28T05:53:30;7.50;99.90
24860;DHT22;12936;52.006;4.350;2024-02-28T05:56:12;7.50;99.90
24860;DHT22;12936;52.006;4.350;2024-02-28T05:58:49;7.40;99.90
24860;DHT22;12936;52.006;4.350;2024-02-28T06:02:24;7.50;99.90
24860;DHT22;12936;52.006;4.350;2024-02-28T06:05:25;7.50;99.90
24860;DHT22;12936;52.006;4.350;2024-02-28T06:08:11;7.60;99.90
24860;DHT22;12936;52.006;4.350;2024-02-28T06:11:07;7.60;99.90
24860;DHT22;12936;52.006;4.350;2024-02-28T06:13:53;7.60;99.90
24860;DHT22;12936;52.006;4.350;2024-02-28T06:16:57;7.60;99.90
24860;DHT22;12936;52.006;4.350;2024-02-28T06:19:48;7.60;99.90
24860;DHT22;12936;52.006;4.350;2024-02-28T06:22:32;7.60;99.90
24860;DHT22;12936;52.006;4.350;2024-02-28T06:25:02;7.60;99.90
24860;DHT22;12936;52.006;4.350;2024-02-28T06:27:34;7.70;99.90
24860;DHT22;12936;52.006;4.350;2024-02-28T06:30:23;7.60;99.90
24860;DHT22;12936;52.006;4.350;2024-02-28T06:32:58;7.70;99.90
24860;DHT22;12936;52.006;4.350;2024-02-28T06:35:35;7.70;99.90
24860;DHT22;12936;52.006;4.350;2024-02-28T06:38:06;7.70;99.90
24860;DHT22;12936;52.006;4.350;2024-02-28T06:40:35;7.70;99.90
24860;DHT22;12936;52.006;4.350;2024-02-28T06:43:03;7.70;99.90
24860;DHT22;12936;52.006;4.350;2024-02-28T06:45:35;7.70;99.90
24860;DHT22;12936;52.006;4.350;2024-02-28T06:48:06;7.70;99.90
24860;DHT22;12936;52.006;4.350;2024-02-28T06:50:37;7.70;99.90
24860;DHT22;12936;52.006;4.350;2024-02-28T06:53:09;7.80;99.90
24860;DHT22;12936;52.006;4.350;2024-02-28T06:55:38;7.90;99.90
24860;DHT22;12936;52.006;4.350;2024-02-28T06:58:07;7.80;99.90
24860;DHT22;12936;52.006;4.350;2024-02-28T07:00:36;7.90;99.90
24860;DHT22;12936;52.006;4.350;2024-02-28T07:03:05;7.90;99.90
24860;DHT22;12936;52.006;4.350;2024-02-28T07:05:55;7.90;99.90
24860;DHT22;12936;52.006;4.350;2024-02-28T07:08:27;7.90;99.90
24860;DHT22;12936;52.006;4.350;2024-02-28T07:11:16;8.00;99.90
24860;DHT22;12936;52.006;4.350;2024-02-28T07:13:44;8.00;99.90
24860;DHT22;12936;52.006;4.350;2024-02-28T07:16:34;8.10;99.90
24860;DHT22;12936;52.006;4.350;2024-02-28T07:19:03;8.00;99.90
24860;DHT22;12936;52.006;4.350;2024-02-28T07:21:32;8.10;99.90
24860;DHT22;12936;52.006;4.350;2024-02-28T07:24:06;8.00;99.90
24860;DHT22;12936;52.006;4.350;2024-02-28T07:26:37;8.00;99.90
24860;DHT22;12936;52.006;4.350;2024-02-28T07:29:07;8.10;99.90
24860;DHT22;12936;52.006;4.350;2024-02-28T07:31:36;8.10;99.90
24860;DHT22;12936;52.006;4.350;2024-02-28T07:34:04;8.10;99.90
24860;DHT22;12936;52.006;4.350;2024-02-28T07:36:34;8.10;99.90
24860;DHT22;12936;52.006;4.350;2024-02-28T07:39:05;8.10;99.90
24860;DHT22;12936;52.006;4.350;2024-02-28T07:41:33;8.10;99.90
24860;DHT22;12936;52.006;4.350;2024-02-28T07:44:01;8.10;99.90
24860;DHT22;12936;52.006;4.350;2024-02-28T07:46:30;8.20;99.90
24860;DHT22;12936;52.006;4.350;2024-02-28T07:48:59;8.20;99.90
24860;DHT22;12936;52.006;4.350;2024-02-28T07:51:28;8.20;99.90
24860;DHT22;12936;52.006;4.350;2024-02-28T07:54:00;8.30;99.90
24860;DHT22;12936;52.006;4.350;2024-02-28T07:56:30;8.30;99.90
24860;DHT22;12936;52.006;4.350;2024-02-28T07:58:59;8.30;99.90
24860;DHT22;12936;52.006;4.350;2024-02-28T08:01:27;8.30;99.90
24860;DHT22;12936;52.006;4.350;2024-02-28T08:04:03;8.30;99.90
24860;DHT22;12936;52.006;4.350;2024-02-28T08:06:31;8.30;99.90
24860;DHT22;12936;52.006;4.350;2024-02-28T08:09:01;8.30;99.90
24860;DHT22;12936;52.006;4.350;2024-02-28T08:11:38;8.40;99.90
24860;DHT22;12936;52.006;4.350;2024-02-28T08:14:07;8.30;99.90
24860;DHT22;12936;52.006;4.350;2024-02-28T08:16:38;8.40;99.90
24860;DHT22;12936;52.006;4.350;2024-02-28T08:19:06;8.40;99.90
24860;DHT22;12936;52.006;4.350;2024-02-28T08:21:35;8.40;99.90
24860;DHT22;12936;52.006;4.350;2024-02-28T08:24:04;8.40;99.90
24860;DHT22;12936;52.006;4.350;2024-02-28T08:26:33;8.40;99.90
24860;DHT22;12936;52.006;4.350;2024-02-28T08:29:11;8.50;99.90
24860;DHT22;12936;52.006;4.350;2024-02-28T08:31:41;8.50;99.90
24860;DHT22;12936;52.006;4.350;2024-02-28T08:34:11;8.40;99.90
24860;DHT22;12936;52.006;4.350;2024-02-28T08:36:40;8.50;99.90
24860;DHT22;12936;52.006;4.350;2024-02-28T08:39:09;8.50;99.90
24860;DHT22;12936;52.006;4.350;2024-02-28T08:41:38;8.50;99.90
24860;DHT22;12936;52.006;4.350;2024-02-28T08:44:06;8.50;99.90
24860;DHT22;12936;52.006;4.350;2024-02-28T08:46:38;8.60;99.90
24860;DHT22;12936;52.006;4.350;2024-02-28T08:49:07;8.60;99.90
24860;DHT22;12936;52.006;4.350;2024-02-28T08:51:36;8.70;99.90
24860;DHT22;12936;52.006;4.350;2024-02-28T08:54:05;8.70;99.90
24860;DHT22;12936;52.006;4.350;2024-02-28T08:56:33;8.70;99.90
24860;DHT22;12936;52.006;4.350;2024-02-28T08:59:05;8.80;99.90
24860;DHT22;12936;52.006;4.350;2024-02-28T09:01:34;8.80;99.90
24860;DHT22;12936;52.006;4.350;2024-02-28T09:04:05;8.80;99.90
24860;DHT22;12936;52.006;4.350;2024-02-28T09:06:34;8.90;99.90
24860;DHT22;12936;52.006;4.350;2024-02-28T09:09:05;8.90;99.90
24860;DHT22;12936;52.006;4.350;2024-02-28T09:11:35;8.90;99.90
24860;DHT22;12936;52.006;4.350;2024-02-28T09:14:04;9.00;99.90
24860;DHT22;12936;52.006;4.350;2024-02-28T09:16:32;9.00;99.90
24860;DHT22;12936;52.006;4.350;2024-02-28T09:19:04;9.00;99.90
24860;DHT22;12936;52.006;4.350;2024-02-28T09:21:33;9.10;99.90
24860;DHT22;12936;52.006;4.350;2024-02-28T09:24:02;9.10;99.90
24860;DHT22;12936;52.006;4.350;2024-02-28T09:26:32;9.20;99.90
24860;DHT22;12936;52.006;4.350;2024-02-28T09:29:01;9.20;99.90
24860;DHT22;12936;52.006;4.350;2024-02-28T09:31:29;9.20;99.90
24860;DHT22;12936;52.006;4.350;2024-02-28T09:33:58;9.20;99.90
24860;DHT22;12936;52.006;4.350;2024-02-28T09:36:32;9.30;99.90
24860;DHT22;12936;52.006;4.350;2024-02-28T09:39:01;9.30;99.90
24860;DHT22;12936;52.006;4.350;2024-02-28T09:41:30;9.30;99.90
24860;DHT22;12936;52.006;4.350;2024-02-28T09:44:00;9.20;99.90
24860;DHT22;12936;52.006;4.350;2024-02-28T09:46:33;9.20;99.90
24860;DHT22;12936;52.006;4.350;2024-02-28T09:49:04;9.20;99.90
24860;DHT22;12936;52.006;4.350;2024-02-28T09:51:36;9.20;99.90
24860;DHT22;12936;52.006;4.350;2024-02-28T09:54:06;9.20;99.90
24860;DHT22;12936;52.006;4.350;2024-02-28T09:56:34;9.30;99.90
24860;DHT22;12936;52.006;4.350;2024-02-28T09:59:03;9.30;99.90
24860;DHT22;12936;52.006;4.350;2024-02-28T10:01:55;9.30;99.90
24860;DHT22;12936;52.006;4.350;2024-02-28T10:04:26;9.30;99.90
24860;DHT22;12936;52.006;4.350;2024-02-28T10:06:57;9.30;99.90
24860;DHT22;12936;52.006;4.350;2024-02-28T10:09:28;9.40;99.90
24860;DHT22;12936;52.006;4.350;2024-02-28T10:11:58;9.40;99.90
24860;DHT22;12936;52.006;4.350;2024-02-28T10:14:31;9.40;99.90
24860;DHT22;12936;52.006;4.350;2024-02-28T10:17:03;9.40;99.90
24860;DHT22;12936;52.006;4.350;2024-02-28T10:19:32;9.40;99.90
24860;DHT22;12936;52.006;4.350;2024-02-28T10:22:03;9.50;99.90
24860;DHT22;12936;52.006;4.350;2024-02-28T10:24:33;9.60;99.90
24860;DHT22;12936;52.006;4.350;2024-02-28T10:27:02;9.70;99.90
24860;DHT22;12936;52.006;4.350;2024-02-28T10:29:33;9.60;99.90
24860;DHT22;12936;52.006;4.350;2024-02-28T10:32:04;9.80;99.90
24860;DHT22;12936;52.006;4.350;2024-02-28T10:34:33;9.90;99.90
24860;DHT22;12936;52.006;4.350;2024-02-28T10:37:05;9.80;99.90
24860;DHT22;12936;52.006;4.350;2024-02-28T10:39:35;9.90;99.90
24860;DHT22;12936;52.006;4.350;2024-02-28T10:42:06;10.00;99.90
24860;DHT22;12936;52.006;4.350;2024-02-28T10:44:37;10.00;99.90
24860;DHT22;12936;52.006;4.350;2024-02-28T10:47:16;10.00;99.90
24860;DHT22;12936;52.006;4.350;2024-02-28T10:49:50;10.00;99.90
24860;DHT22;12936;52.006;4.350;2024-02-28T10:52:22;10.00;99.90
24860;DHT22;12936;52.006;4.350;2024-02-28T10:54:53;10.00;99.90
24860;DHT22;12936;52.006;4.350;2024-02-28T10:57:25;10.00;99.90
24860;DHT22;12936;52.006;4.350;2024-02-28T10:59:54;10.00;99.90
24860;DHT22;12936;52.006;4.350;2024-02-28T11:02:24;10.00;99.90
24860;DHT22;12936;52.006;4.350;2024-02-28T11:04:53;10.00;99.90
24860;DHT22;12936;52.006;4.350;2024-02-28T11:07:24;10.10;99.90
24860;DHT22;12936;52.006;4.350;2024-02-28T11:09:55;10.10;99.90
24860;DHT22;12936;52.006;4.350;2024-02-28T11:12:25;10.10;99.90
24860;DHT22;12936;52.006;4.350;2024-02-28T11:14:58;10.10;99.90
24860;DHT22;12936;52.006;4.350;2024-02-28T11:17:30;10.20;99.90
24860;DHT22;12936;52.006;4.350;2024-02-28T11:19:59;10.20;99.90
24860;DHT22;12936;52.006;4.350;2024-02-28T11:22:30;10.30;99.90
24860;DHT22;12936;52.006;4.350;2024-02-28T11:25:01;10.30;99.90
24860;DHT22;12936;52.006;4.350;2024-02-28T11:27:51;10.30;99.90
24860;DHT22;12936;52.006;4.350;2024-02-28T11:30:19;10.30;99.90
24860;DHT22;12936;52.006;4.350;2024-02-28T11:32:48;10.30;99.90
24860;DHT22;12936;52.006;4.350;2024-02-28T11:35:16;10.40;99.90
24860;DHT22;12936;52.006;4.350;2024-02-28T11:37:47;10.40;99.90
24860;DHT22;12936;52.006;4.350;2024-02-28T11:40:17;10.40;99.90
24860;DHT22;12936;52.006;4.350;2024-02-28T11:42:50;10.40;99.90
24860;DHT22;12936;52.006;4.350;2024-02-28T11:45:19;10.40;99.90
24860;DHT22;12936;52.006;4.350;2024-02-28T11:48:07;10.50;99.90
24860;DHT22;12936;52.006;4.350;2024-02-28T11:50:37;10.40;99.90
24860;DHT22;12936;52.006;4.350;2024-02-28T11:53:11;10.40;99.90
24860;DHT22;12936;52.006;4.350;2024-02-28T11:55:39;10.40;99.90
24860;DHT22;12936;52.006;4.350;2024-02-28T11:58:10;10.30;99.90
24860;DHT22;12936;52.006;4.350;2024-02-28T12:00:46;10.30;99.90
24860;DHT22;12936;52.006;4.350;2024-02-28T12:03:19;10.30;99.90
24860;DHT22;12936;52.006;4.350;2024-02-28T12:05:48;10.30;99.90
24860;DHT22;12936;52.006;4.350;2024-02-28T12:08:19;10.30;99.90
24860;DHT22;12936;52.006;4.350;2024-02-28T12:10:50;10.20;99.90
24860;DHT22;12936;52.006;4.350;2024-02-28T12:13:19;10.30;99.90
24860;DHT22;12936;52.006;4.350;2024-02-28T12:15:47;10.30;99.90
24860;DHT22;12936;52.006;4.350;2024-02-28T12:18:16;10.20;99.90
24860;DHT22;12936;52.006;4.350;2024-02-28T12:20:44;10.30;99.90
24860;DHT22;12936;52.006;4.350;2024-02-28T12:23:14;10.30;99.90
24860;DHT22;12936;52.006;4.350;2024-02-28T12:25:46;10.30;99.90
24860;DHT22;12936;52.006;4.350;2024-02-28T12:28:14;10.40;99.90
24860;DHT22;12936;52.006;4.350;2024-02-28T12:30:43;10.40;99.90
24860;DHT22;12936;52.006;4.350;2024-02-28T12:33:12;10.50;99.90
24860;DHT22;12936;52.006;4.350;2024-02-28T12:35:40;10.30;99.90
24860;DHT22;12936;52.006;4.350;2024-02-28T12:38:09;10.40;99.90
24860;DHT22;12936;52.006;4.350;2024-02-28T12:40:38;10.30;99.90
24860;DHT22;12936;52.006;4.350;2024-02-28T12:43:08;10.30;99.90
24860;DHT22;12936;52.006;4.350;2024-02-28T12:45:36;10.30;99.90
24860;DHT22;12936;52.006;4.350;2024-02-28T12:48:05;10.40;99.90
24860;DHT22;12936;52.006;4.350;2024-02-28T12:50:33;10.30;99.90
24860;DHT22;12936;52.006;4.350;2024-02-28T12:53:02;10.30;99.90
24860;DHT22;12936;52.006;4.350;2024-02-28T12:55:31;10.30;99.90
24860;DHT22;12936;52.006;4.350;2024-02-28T12:57:59;10.30;99.90
24860;DHT22;12936;52.006;4.350;2024-02-28T13:00:33;10.40;99.90
24860;DHT22;12936;52.006;4.350;2024-02-28T13:03:02;10.30;99.90
24860;DHT22;12936;52.006;4.350;2024-02-28T13:05:31;10.30;99.90
24860;DHT22;12936;52.006;4.350;2024-02-28T13:08:03;10.30;99.90
24860;DHT22;12936;52.006;4.350;2024-02-28T13:10:36;10.40;99.90
24860;DHT22;12936;52.006;4.350;2024-02-28T13:13:09;10.40;99.90
24860;DHT22;12936;52.006;4.350;2024-02-28T13:15:40;10.50;99.90
24860;DHT22;12936;52.006;4.350;2024-02-28T13:18:09;10.50;99.90
24860;DHT22;12936;52.006;4.350;2024-02-28T13:20:38;10.50;99.90
24860;DHT22;12936;52.006;4.350;2024-02-28T13:23:07;10.50;99.90
24860;DHT22;12936;52.006;4.350;2024-02-28T13:25:35;10.50;99.90
24860;DHT22;12936;52.006;4.350;2024-02-28T13:28:04;10.60;99.90
24860;DHT22;12936;52.006;4.350;2024-02-28T13:30:32;10.50;99.90
24860;DHT22;12936;52.006;4.350;2024-02-28T13:33:05;10.60;99.90
24860;DHT22;12936;52.006;4.350;2024-02-28T13:35:36;10.50;99.90
24860;DHT22;12936;52.006;4.350;2024-02-28T13:38:05;10.50;99.90
24860;DHT22;12936;52.006;4.350;2024-02-28T13:40:33;10.60;99.90
24860;DHT22;12936;52.006;4.350;2024-02-28T13:43:02;10.50;99.90
24860;DHT22;12936;52.006;4.350;2024-02-28T13:45:30;10.50;99.90
24860;DHT22;12936;52.006;4.350;2024-02-28T13:48:01;10.50;99.90
24860;DHT22;12936;52.006;4.350;2024-02-28T13:50:31;10.50;99.90
24860;DHT22;12936;52.006;4.350;2024-02-28T13:53:00;10.50;99.90
24860;DHT22;12936;52.006;4.350;2024-02-28T13:55:28;10.50;99.90
24860;DHT22;12936;52.006;4.350;2024-02-28T13:57:56;10.40;99.90
24860;DHT22;12936;52.006;4.350;2024-02-28T14:00:24;10.50;99.90
24860;DHT22;12936;52.006;4.350;2024-02-28T14:02:53;10.40;99.90
24860;DHT22;12936;52.006;4.350;2024-02-28T14:05:21;10.40;99.90
24860;DHT22;12936;52.006;4.350;2024-02-28T14:07:51;10.50;99.90
24860;DHT22;12936;52.006;4.350;2024-02-28T14:10:19;10.40;99.90
24860;DHT22;12936;52.006;4.350;2024-02-28T14:12:48;10.50;99.90
24860;DHT22;12936;52.006;4.350;2024-02-28T14:15:39;10.40;99.90
24860;DHT22;12936;52.006;4.350;2024-02-28T14:18:07;10.40;99.90
24860;DHT22;12936;52.006;4.350;2024-02-28T14:20:35;10.40;99.90
24860;DHT22;12936;52.006;4.350;2024-02-28T14:23:09;10.30;99.90
24860;DHT22;12936;52.006;4.350;2024-02-28T14:25:37;10.40;99.90
24860;DHT22;12936;52.006;4.350;2024-02-28T14:28:06;10.40;99.90
24860;DHT22;12936;52.006;4.350;2024-02-28T14:30:34;10.30;99.90
24860;DHT22;12936;52.006;4.350;2024-02-28T14:33:03;10.30;99.90
24860;DHT22;12936;52.006;4.350;2024-02-28T14:35:34;10.30;99.90
24860;DHT22;12936;52.006;4.350;2024-02-28T14:38:05;10.40;99.90
24860;DHT22;12936;52.006;4.350;2024-02-28T14:40:36;10.40;99.90
24860;DHT22;12936;52.006;4.350;2024-02-28T14:43:05;10.40;99.90
24860;DHT22;12936;52.006;4.350;2024-02-28T14:45:34;10.40;99.90
24860;DHT22;12936;52.006;4.350;2024-02-28T14:48:07;10.50;99.90
24860;DHT22;12936;52.006;4.350;2024-02-28T14:50:57;10.50;99.90
24860;DHT22;12936;52.006;4.350;2024-02-28T14:53:25;10.40;99.90
24860;DHT22;12936;52.006;4.350;2024-02-28T14:55:55;10.40;99.90
24860;DHT22;12936;52.006;4.350;2024-02-28T14:58:24;10.40;99.90
24860;DHT22;12936;52.006;4.350;2024-02-28T15:00:52;10.40;99.90
24860;DHT22;12936;52.006;4.350;2024-02-28T15:03:25;10.30;99.90
24860;DHT22;12936;52.006;4.350;2024-02-28T15:05:54;10.30;99.90
24860;DHT22;12936;52.006;4.350;2024-02-28T15:08:22;10.30;99.90
24860;DHT22;12936;52.006;4.350;2024-02-28T15:10:50;10.30;99.90
24860;DHT22;12936;52.006;4.350;2024-02-28T15:13:21;10.20;99.90
24860;DHT22;12936;52.006;4.350;2024-02-28T15:15:50;10.20;99.90
24860;DHT22;12936;52.006;4.350;2024-02-28T15:18:19;10.20;99.90
24860;DHT22;12936;52.006;4.350;2024-02-28T15:20:49;10.30;99.90
24860;DHT22;12936;52.006;4.350;2024-02-28T15:23:21;10.30;99.90
24860;DHT22;12936;52.006;4.350;2024-02-28T15:25:50;10.30;99.90
24860;DHT22;12936;52.006;4.350;2024-02-28T15:28:22;10.30;99.90
24860;DHT22;12936;52.006;4.350;2024-02-28T15:30:53;10.30;99.90
24860;DHT22;12936;52.006;4.350;2024-02-28T15:33:22;10.30;99.90
24860;DHT22;12936;52.006;4.350;2024-02-28T15:35:50;10.40;99.90
24860;DHT22;12936;52.006;4.350;2024-02-28T15:38:19;10.40;99.90
24860;DHT22;12936;52.006;4.350;2024-02-28T15:40:47;10.40;99.90
24860;DHT22;12936;52.006;4.350;2024-02-28T15:43:15;10.40;99.90
24860;DHT22;12936;52.006;4.350;2024-02-28T15:45:45;10.40;99.90
24860;DHT22;12936;52.006;4.350;2024-02-28T15:48:16;10.50;99.90
24860;DHT22;12936;52.006;4.350;2024-02-28T15:50:45;10.50;99.90
24860;DHT22;12936;52.006;4.350;2024-02-28T15:53:15;10.40;99.90
24860;DHT22;12936;52.006;4.350;2024-02-28T15:55:43;10.50;99.90
24860;DHT22;12936;52.006;4.350;2024-02-28T15:58:11;10.50;99.90
24860;DHT22;12936;52.006;4.350;2024-02-28T16:00:39;10.50;99.90
24860;DHT22;12936;52.006;4.350;2024-02-28T16:03:09;10.50;99.90
24860;DHT22;12936;52.006;4.350;2024-02-28T16:05:37;10.40;99.90
24860;DHT22;12936;52.006;4.350;2024-02-28T16:08:06;10.30;99.90
24860;DHT22;12936;52.006;4.350;2024-02-28T16:10:34;10.30;99.90
24860;DHT22;12936;52.006;4.350;2024-02-28T16:13:02;10.40;99.90
24860;DHT22;12936;52.006;4.350;2024-02-28T16:15:31;10.30;99.90
24860;DHT22;12936;52.006;4.350;2024-02-28T16:18:01;10.30;99.90
24860;DHT22;12936;52.006;4.350;2024-02-28T16:20:30;10.40;99.90
24860;DHT22;12936;52.006;4.350;2024-02-28T16:22:59;10.50;99.90
24860;DHT22;12936;52.006;4.350;2024-02-28T16:25:29;10.50;99.90
24860;DHT22;12936;52.006;4.350;2024-02-28T16:27:58;10.40;99.90
24860;DHT22;12936;52.006;4.350;2024-02-28T16:30:27;10.50;99.90
24860;DHT22;12936;52.006;4.350;2024-02-28T16:32:55;10.50;99.90
24860;DHT22;12936;52.006;4.350;2024-02-28T16:35:23;10.50;99.90
24860;DHT22;12936;52.006;4.350;2024-02-28T16:37:52;10.50;99.90
24860;DHT22;12936;52.006;4.350;2024-02-28T16:40:20;10.50;99.90
24860;DHT22;12936;52.006;4.350;2024-02-28T16:42:49;10.50;99.90
24860;DHT22;12936;52.006;4.350;2024-02-28T16:45:17;10.50;99.90
24860;DHT22;12936;52.006;4.350;2024-02-28T16:47:45;10.50;99.90
24860;DHT22;12936;52.006;4.350;2024-02-28T16:50:14;10.50;99.90
24860;DHT22;12936;52.006;4.350;2024-02-28T16:52:42;10.40;99.90
24860;DHT22;12936;52.006;4.350;2024-02-28T16:55:12;10.40;99.90
24860;DHT22;12936;52.006;4.350;2024-02-28T16:57:40;10.40;99.90
24860;DHT22;12936;52.006;4.350;2024-02-28T17:00:09;10.30;99.90
24860;DHT22;12936;52.006;4.350;2024-02-28T17:02:38;10.30;99.90
24860;DHT22;12936;52.006;4.350;2024-02-28T17:05:07;10.20;99.90
24860;DHT22;12936;52.006;4.350;2024-02-28T17:07:36;10.20;99.90
24860;DHT22;12936;52.006;4.350;2024-02-28T17:10:04;10.20;99.90
24860;DHT22;12936;52.006;4.350;2024-02-28T17:12:37;10.20;99.90
24860;DHT22;12936;52.006;4.350;2024-02-28T17:15:06;10.20;99.90
24860;DHT22;12936;52.006;4.350;2024-02-28T17:17:34;10.10;99.90